The Dalles, Oregon
Current Conditions -  °F | °C
As of 3:53 AM on Sunday 25 Jan 2015 (Local Time) from KDLS Reporting Station
Moderate Fog Moderate Fog  
Wind Chill: 47°   Ceiling: 300
Heat Index: 47°   Visibility: 0.25mi
Dew Point: 46°   Wind: 0mph
Humidity: 97%   Direction: NA
Pressure: 30.24"   Gusts: NA
Location:  45.61°N, 121.17°W
Report Text: KDLS 251153Z AUTO 00000KT 1/4SM FG VV003 08/08 A3024 RMK AO2 SLP240 T00830078 10083 20061 58005
Loading
Personal Weather Stations






























Interactive Weather Map New forecast layout! Learn more

10-Day Weather Forecast

Advertisements
Track Severe Weather on mobile